Time;durP1;ratioP1;P1;durP2;ratioP2;P2;SDS_P1;SDS_P2;PMS_P1;PMS_P2;Temp;Humidity;BMP_temperature;BMP_pressure;BME280_temperature;BME280_humidity;BME280_pressure;Samples;Min_cycle;Max_cycle;Signal;HPM_P1;HPM_P2
2023/06/25 00:00:35;;;;;;;5.55;4.75;;;23.20;65.40;;;;;;5100787;28;20440;-67
2023/06/25 00:03:00;;;;;;;6.72;4.72;;;23.20;65.50;;;;;;5086403;28;20059;-67
2023/06/25 00:05:26;;;;;;;6.05;4.57;;;23.30;65.60;;;;;;5105645;28;20110;-67
2023/06/25 00:07:52;;;;;;;6.78;5.22;;;23.20;65.60;;;;;;5094753;28;20041;-67
2023/06/25 00:10:18;;;;;;;6.80;4.88;;;23.20;65.70;;;;;;5099236;28;20016;-68
2023/06/25 00:12:44;;;;;;;7.05;5.03;;;23.20;66.00;;;;;;5095180;28;20047;-67
2023/06/25 00:15:11;;;;;;;5.95;5.25;;;23.10;66.20;;;;;;5098331;28;20032;-68
2023/06/25 00:17:36;;;;;;;5.40;4.80;;;23.10;66.50;;;;;;5104432;28;20375;-68
2023/06/25 00:20:03;;;;;;;7.03;5.47;;;23.00;66.50;;;;;;5097403;28;20027;-68
2023/06/25 00:22:28;;;;;;;5.65;4.75;;;22.90;66.80;;;;;;5112176;28;20024;-67
2023/06/25 00:24:54;;;;;;;5.65;4.53;;;22.90;67.00;;;;;;5093130;28;20035;-67
2023/06/25 00:27:19;;;;;;;5.28;4.60;;;22.90;67.00;;;;;;5094049;28;20027;-68
2023/06/25 00:29:45;;;;;;;6.25;5.40;;;22.80;67.10;;;;;;5095275;28;20085;-67
2023/06/25 00:32:17;;;;;;;6.82;5.10;;;22.70;67.40;;;;;;5109861;28;20041;-67
2023/06/25 00:34:43;;;;;;;4.95;4.45;;;22.70;67.70;;;;;;5098497;28;20470;-67
2023/06/25 00:37:16;;;;;;;5.90;4.90;;;22.70;67.70;;;;;;5101398;28;20031;-67
2023/06/25 00:39:47;;;;;;;5.88;4.90;;;22.70;67.70;;;;;;5093888;28;20062;-67
2023/06/25 00:42:14;;;;;;;4.93;4.28;;;22.60;67.90;;;;;;5092760;28;20036;-67
2023/06/25 00:44:42;;;;;;;6.88;4.82;;;22.60;68.10;;;;;;5077296;28;20056;-67
2023/06/25 00:47:15;;;;;;;6.70;5.57;;;22.50;68.40;;;;;;5093665;28;20034;-67
2023/06/25 00:49:43;;;;;;;5.47;4.68;;;22.50;68.60;;;;;;5089217;28;20600;-67
2023/06/25 00:52:10;;;;;;;6.50;5.80;;;22.50;68.80;;;;;;5098257;28;20024;-67
2023/06/25 00:54:40;;;;;;;6.97;5.45;;;22.40;69.30;;;;;;5071457;28;20020;-67
2023/06/25 00:57:07;;;;;;;8.48;6.20;;;22.30;69.40;;;;;;5069858;28;20111;-66
2023/06/25 00:59:43;;;;;;;6.05;5.45;;;22.30;70.30;;;;;;5092418;28;20050;-67
2023/06/25 01:02:21;;;;;;;8.43;5.90;;;22.20;70.50;;;;;;5100830;28;20036;-67
2023/06/25 01:04:59;;;;;;;7.97;6.88;;;22.10;70.90;;;;;;5091810;28;20027;-67
2023/06/25 01:07:25;;;;;;;7.90;6.40;;;22.10;71.30;;;;;;5087930;28;20035;-67
2023/06/25 01:09:51;;;;;;;8.73;6.80;;;22.00;72.10;;;;;;5082589;28;20020;-66
2023/06/25 01:12:17;;;;;;;10.32;6.30;;;22.00;72.30;;;;;;5091913;28;20367;-66
2023/06/25 01:14:42;;;;;;;9.85;6.50;;;22.00;72.40;;;;;;5083910;28;20031;-66
2023/06/25 01:17:09;;;;;;;7.82;6.53;;;21.90;72.80;;;;;;5100324;28;20080;-67
2023/06/25 01:19:35;;;;;;;6.30;5.63;;;21.90;73.10;;;;;;5090708;28;20145;-67
2023/06/25 01:22:03;;;;;;;9.60;6.93;;;21.90;73.20;;;;;;5104088;28;20058;-66
2023/06/25 01:24:29;;;;;;;6.47;5.60;;;21.90;73.60;;;;;;5097841;28;20020;-66
2023/06/25 01:26:56;;;;;;;7.70;6.55;;;21.90;73.40;;;;;;5078479;28;20101;-66
2023/06/25 01:29:22;;;;;;;7.55;6.40;;;21.80;73.50;;;;;;5093338;28;20027;-66
2023/06/25 01:31:51;;;;;;;7.63;6.45;;;21.80;73.80;;;;;;5086108;28;20063;-66
2023/06/25 01:34:21;;;;;;;7.97;6.75;;;21.80;73.80;;;;;;5079503;28;20104;-67
2023/06/25 01:36:49;;;;;;;8.02;6.72;;;21.80;74.20;;;;;;5093218;28;20034;-67
2023/06/25 01:39:19;;;;;;;9.23;7.07;;;21.70;74.60;;;;;;5101593;28;20031;-67
2023/06/25 01:41:45;;;;;;;7.25;5.65;;;21.70;74.70;;;;;;5095961;28;20035;-67
2023/06/25 01:44:25;;;;;;;8.07;6.53;;;21.70;74.50;;;;;;5106946;28;20046;-67
2023/06/25 01:46:51;;;;;;;8.27;6.60;;;21.70;74.70;;;;;;5084147;28;20027;-67
2023/06/25 01:49:17;;;;;;;8.05;6.70;;;21.70;74.70;;;;;;5089824;28;20103;-67
2023/06/25 01:51:42;;;;;;;9.25;6.55;;;21.70;74.90;;;;;;5069731;28;20017;-68
2023/06/25 01:54:08;;;;;;;8.60;7.00;;;21.70;75.00;;;;;;5075017;28;20082;-68
2023/06/25 01:56:34;;;;;;;9.32;6.70;;;21.60;75.10;;;;;;5083092;28;20020;-68
2023/06/25 01:58:59;;;;;;;9.27;7.10;;;21.60;75.10;;;;;;5089937;28;20032;-68
2023/06/25 02:01:25;;;;;;;7.93;6.38;;;21.60;75.30;;;;;;5088290;28;20028;-68
2023/06/25 02:03:50;;;;;;;10.40;8.15;;;21.60;75.30;;;;;;5087216;28;20056;-67
2023/06/25 02:06:16;;;;;;;8.68;7.35;;;21.50;75.80;;;;;;5081118;28;20636;-67
2023/06/25 02:08:42;;;;;;;11.40;8.07;;;21.50;75.90;;;;;;5098546;28;20411;-67
2023/06/25 02:11:07;;;;;;;10.18;8.25;;;21.50;76.10;;;;;;5087608;28;20032;-68
2023/06/25 02:13:34;;;;;;;9.75;7.82;;;21.40;76.40;;;;;;5106396;28;20022;-68
2023/06/25 02:16:01;;;;;;;8.70;7.75;;;21.40;76.40;;;;;;5098459;28;20024;-67
2023/06/25 02:18:27;;;;;;;11.50;8.05;;;21.40;76.50;;;;;;5091501;28;20028;-68
2023/06/25 02:20:53;;;;;;;9.60;7.82;;;21.40;76.50;;;;;;5095959;28;20016;-68
2023/06/25 02:23:19;;;;;;;8.35;7.40;;;21.40;76.50;;;;;;5089086;28;20677;-68
2023/06/25 02:25:44;;;;;;;8.85;7.65;;;21.40;76.40;;;;;;5092501;28;20093;-67
2023/06/25 02:28:10;;;;;;;9.32;7.05;;;21.40;76.40;;;;;;5091716;28;20104;-68
2023/06/25 02:30:35;;;;;;;9.27;7.53;;;21.40;76.30;;;;;;5097227;28;20454;-68
2023/06/25 02:33:01;;;;;;;8.40;7.20;;;21.40;76.10;;;;;;5090036;28;20071;-67
2023/06/25 02:35:26;;;;;;;8.23;6.47;;;21.30;76.00;;;;;;5087541;28;20081;-68
2023/06/25 02:37:52;;;;;;;8.25;6.85;;;21.30;76.10;;;;;;5083256;28;20034;-67
2023/06/25 02:40:18;;;;;;;8.38;6.72;;;21.30;76.00;;;;;;5101632;28;20043;-67
2023/06/25 02:42:44;;;;;;;8.70;6.93;;;21.30;76.00;;;;;;5095066;28;20051;-67
2023/06/25 02:45:10;;;;;;;8.35;7.13;;;21.30;76.10;;;;;;5095564;28;20052;-67
2023/06/25 02:47:35;;;;;;;8.40;6.60;;;21.30;76.10;;;;;;5090852;28;20032;-67
2023/06/25 02:50:01;;;;;;;8.27;6.57;;;21.20;76.10;;;;;;5105282;28;20437;-67
2023/06/25 02:52:26;;;;;;;8.55;7.40;;;21.20;76.10;;;;;;5098338;28;20020;-67
2023/06/25 02:54:52;;;;;;;7.90;6.80;;;21.20;76.10;;;;;;5109059;28;20023;-67
2023/06/25 02:57:18;;;;;;;8.60;7.13;;;21.20;76.10;;;;;;5091844;28;20035;-67
2023/06/25 02:59:43;;;;;;;8.23;7.05;;;21.20;76.30;;;;;;5110250;28;20019;-66
2023/06/25 03:02:09;;;;;;;8.95;7.50;;;21.20;76.30;;;;;;5088690;28;20071;-66
2023/06/25 03:04:34;;;;;;;8.68;7.57;;;21.10;76.30;;;;;;5106881;28;20028;-67
2023/06/25 03:07:00;;;;;;;8.52;7.03;;;21.10;76.40;;;;;;5088078;28;20081;-67
2023/06/25 03:09:25;;;;;;;8.43;6.82;;;21.10;76.30;;;;;;5088001;28;20506;-67
2023/06/25 03:11:51;;;;;;;9.85;7.35;;;21.20;76.30;;;;;;5088603;28;20023;-67
2023/06/25 03:14:16;;;;;;;9.82;8.00;;;21.10;76.40;;;;;;5100368;28;20486;-67
2023/06/25 03:16:42;;;;;;;9.02;7.25;;;21.10;76.60;;;;;;5092059;28;20025;-67
2023/06/25 03:19:08;;;;;;;10.02;7.60;;;21.10;76.50;;;;;;5071862;28;20031;-67
2023/06/25 03:21:33;;;;;;;8.02;6.70;;;21.10;76.50;;;;;;5086735;28;20024;-67
2023/06/25 03:23:59;;;;;;;9.02;7.07;;;21.10;76.30;;;;;;5105216;28;20110;-66
2023/06/25 03:26:24;;;;;;;7.90;7.03;;;21.10;76.20;;;;;;5099880;28;20498;-67
2023/06/25 03:28:51;;;;;;;8.38;6.95;;;21.10;76.20;;;;;;5096933;28;20020;-67
2023/06/25 03:31:17;;;;;;;9.18;7.47;;;21.10;76.20;;;;;;5101820;28;20099;-67
2023/06/25 03:33:43;;;;;;;8.30;7.40;;;21.10;76.20;;;;;;5098408;28;20103;-67
2023/06/25 03:36:09;;;;;;;9.15;7.35;;;21.10;76.20;;;;;;5072569;28;20031;-67
2023/06/25 03:38:34;;;;;;;9.30;7.20;;;21.10;76.10;;;;;;5092307;28;20052;-67
2023/06/25 03:41:00;;;;;;;10.00;7.43;;;21.10;76.00;;;;;;5096205;28;20372;-67
2023/06/25 03:43:26;;;;;;;9.32;7.38;;;21.10;75.80;;;;;;5098057;28;20120;-67
2023/06/25 03:45:51;;;;;;;8.60;7.30;;;21.10;75.70;;;;;;5092638;28;20031;-67
2023/06/25 03:48:17;;;;;;;10.20;7.93;;;21.10;75.60;;;;;;5087088;28;20032;-67
2023/06/25 03:50:42;;;;;;;9.90;7.80;;;21.10;75.50;;;;;;5083221;28;20052;-67
2023/06/25 03:53:09;;;;;;;8.45;7.28;;;21.10;75.30;;;;;;5099160;28;20024;-67
2023/06/25 03:55:34;;;;;;;9.45;7.22;;;21.10;75.20;;;;;;5091737;28;20050;-67
2023/06/25 03:58:00;;;;;;;7.20;6.32;;;21.10;75.00;;;;;;5089682;28;20024;-67
2023/06/25 04:00:26;;;;;;;8.00;6.57;;;21.10;74.90;;;;;;5094776;28;20594;-68
2023/06/25 04:02:51;;;;;;;8.60;7.03;;;21.10;74.80;;;;;;5093892;28;20555;-67
2023/06/25 04:05:17;;;;;;;8.18;7.00;;;21.10;74.80;;;;;;5092622;28;20386;-67
2023/06/25 04:07:42;;;;;;;8.75;7.05;;;21.10;74.70;;;;;;5094734;28;20382;-67
2023/06/25 04:10:08;;;;;;;9.05;7.15;;;21.10;74.70;;;;;;5103162;28;20057;-67
2023/06/25 04:12:34;;;;;;;9.68;7.32;;;21.10;74.70;;;;;;5092835;28;20016;-67
2023/06/25 04:14:59;;;;;;;9.00;7.20;;;21.10;74.60;;;;;;5097900;28;20030;-67
2023/06/25 04:17:25;;;;;;;8.63;6.82;;;21.10;74.50;;;;;;5098766;28;20051;-67
2023/06/25 04:19:50;;;;;;;7.63;6.82;;;21.10;74.40;;;;;;5106424;28;20016;-67
2023/06/25 04:22:16;;;;;;;9.45;7.63;;;21.10;74.40;;;;;;5088983;28;20475;-68
2023/06/25 04:24:42;;;;;;;9.35;7.22;;;21.10;74.40;;;;;;5097378;28;20043;-68
2023/06/25 04:27:07;;;;;;;10.10;8.05;;;21.10;74.30;;;;;;5091274;28;20028;-67
2023/06/25 04:29:33;;;;;;;10.65;8.68;;;21.20;74.30;;;;;;5087628;28;20073;-68
2023/06/25 04:32:01;;;;;;;8.23;6.97;;;21.10;74.10;;;;;;5079381;28;20032;-68
2023/06/25 04:34:26;;;;;;;10.32;7.70;;;21.20;74.00;;;;;;5092943;28;20136;-68
2023/06/25 04:36:52;;;;;;;9.68;7.50;;;21.20;73.80;;;;;;5090370;28;20501;-67
2023/06/25 04:39:18;;;;;;;9.02;7.60;;;21.20;73.70;;;;;;5090159;28;20016;-68
2023/06/25 04:41:43;;;;;;;9.20;7.80;;;21.30;73.60;;;;;;5094667;28;20470;-67
2023/06/25 04:44:09;;;;;;;8.57;6.75;;;21.30;73.40;;;;;;5102266;28;20424;-67
2023/06/25 04:46:34;;;;;;;7.82;6.22;;;21.40;73.10;;;;;;5094181;28;20028;-67
2023/06/25 04:49:00;;;;;;;8.63;7.20;;;21.40;72.70;;;;;;5108036;28;20069;-67
2023/06/25 04:51:25;;;;;;;9.60;7.40;;;21.40;72.40;;;;;;5097415;28;20020;-67
2023/06/25 04:53:51;;;;;;;8.73;6.93;;;21.60;72.10;;;;;;5107936;28;20016;-68
2023/06/25 04:56:17;;;;;;;8.55;6.55;;;22.10;70.80;;;;;;5099445;28;20043;-67
2023/06/25 04:58:43;;;;;;;10.25;7.28;;;22.50;69.40;;;;;;5102865;28;20099;-67
2023/06/25 05:01:09;;;;;;;8.77;7.35;;;22.90;68.20;;;;;;5084994;28;20028;-68
2023/06/25 05:03:34;;;;;;;9.88;6.65;;;23.10;67.10;;;;;;5102755;28;20019;-68
2023/06/25 05:06:00;;;;;;;7.13;6.18;;;23.40;66.50;;;;;;5096086;28;20024;-67
2023/06/25 05:08:25;;;;;;;7.60;6.25;;;23.70;65.30;;;;;;5099539;28;20064;-68
2023/06/25 05:10:51;;;;;;;7.18;6.03;;;23.90;64.60;;;;;;5087305;28;20104;-67
2023/06/25 05:13:17;;;;;;;8.00;6.70;;;24.20;63.80;;;;;;5096533;28;20028;-67
2023/06/25 05:15:42;;;;;;;7.00;5.20;;;24.30;63.10;;;;;;5099641;28;20049;-67
2023/06/25 05:18:09;;;;;;;6.57;5.32;;;24.60;62.70;;;;;;5098143;28;20035;-67
2023/06/25 05:20:38;;;;;;;6.68;5.95;;;24.80;62.10;;;;;;5087601;28;20407;-67
2023/06/25 05:23:08;;;;;;;6.43;5.57;;;24.90;61.70;;;;;;5095056;28;20035;-67
2023/06/25 05:25:35;;;;;;;6.53;5.70;;;25.10;61.30;;;;;;5106544;28;20497;-68
2023/06/25 05:28:01;;;;;;;6.28;5.32;;;25.20;60.70;;;;;;5083646;28;20025;-68
2023/06/25 05:30:33;;;;;;;6.20;5.45;;;25.20;60.70;;;;;;5092263;28;20647;-67
2023/06/25 05:32:59;;;;;;;6.65;5.43;;;25.20;60.50;;;;;;5098000;28;20099;-67
2023/06/25 05:35:26;;;;;;;7.13;5.55;;;25.30;60.20;;;;;;5086353;28;20591;-67
2023/06/25 05:37:52;;;;;;;7.10;6.03;;;25.40;60.00;;;;;;5098948;28;20138;-67
2023/06/25 05:40:18;;;;;;;7.45;5.38;;;25.40;59.50;;;;;;5100909;28;20111;-67
2023/06/25 05:42:43;;;;;;;5.15;4.15;;;25.40;59.30;;;;;;5092738;28;20471;-67
2023/06/25 05:45:09;;;;;;;5.65;4.55;;;25.50;59.40;;;;;;5077849;28;20028;-68
2023/06/25 05:47:35;;;;;;;6.45;4.90;;;25.70;59.40;;;;;;5076503;28;20081;-68
2023/06/25 05:50:01;;;;;;;6.10;5.25;;;25.60;59.20;;;;;;5078187;28;20107;-67
2023/06/25 05:52:27;;;;;;;7.57;5.10;;;25.60;59.90;;;;;;5078822;28;20436;-68
2023/06/25 05:54:52;;;;;;;7.38;5.80;;;25.60;59.20;;;;;;5078133;28;20036;-67
2023/06/25 05:57:18;;;;;;;6.05;5.20;;;25.50;58.70;;;;;;5094455;28;20363;-68
2023/06/25 05:59:44;;;;;;;6.85;5.93;;;25.50;59.10;;;;;;5096148;28;20027;-68
2023/06/25 06:02:10;;;;;;;6.63;5.55;;;25.40;58.80;;;;;;5085801;28;20032;-68
2023/06/25 06:04:36;;;;;;;7.03;5.65;;;25.30;58.90;;;;;;5090675;28;20027;-68
2023/06/25 06:07:02;;;;;;;7.38;5.97;;;25.40;59.00;;;;;;5091976;28;20051;-69
2023/06/25 06:09:28;;;;;;;7.03;6.03;;;25.40;58.60;;;;;;5091737;28;20086;-69
2023/06/25 06:11:53;;;;;;;6.15;5.35;;;25.40;58.60;;;;;;5082388;28;20145;-69
2023/06/25 06:14:19;;;;;;;7.55;5.50;;;25.40;58.50;;;;;;5083200;28;20742;-68
2023/06/25 06:16:44;;;;;;;6.55;5.85;;;25.50;58.70;;;;;;5081117;28;20029;-69
2023/06/25 06:19:10;;;;;;;7.28;5.35;;;25.70;58.30;;;;;;5090985;28;20035;-69
2023/06/25 06:21:36;;;;;;;6.32;5.30;;;25.90;58.20;;;;;;5080014;28;20036;-69
2023/06/25 06:24:01;;;;;;;6.82;5.97;;;25.90;58.00;;;;;;5091602;28;20031;-68
2023/06/25 06:26:27;;;;;;;5.72;4.70;;;26.10;57.80;;;;;;5096137;28;20028;-68
2023/06/25 06:28:52;;;;;;;7.75;5.70;;;26.20;57.80;;;;;;5093952;28;20028;-68
2023/06/25 06:31:19;;;;;;;6.63;5.40;;;26.10;57.40;;;;;;5089121;28;20017;-68
2023/06/25 06:33:45;;;;;;;5.30;4.68;;;26.20;57.70;;;;;;5092135;28;20020;-68
2023/06/25 06:36:10;;;;;;;6.45;5.70;;;26.40;57.70;;;;;;5084240;28;20681;-68
2023/06/25 06:38:36;;;;;;;7.88;5.70;;;26.50;57.40;;;;;;5080425;28;20028;-68
2023/06/25 06:41:02;;;;;;;7.90;5.80;;;26.60;57.30;;;;;;5093832;28;20386;-68
2023/06/25 06:43:27;;;;;;;7.43;5.35;;;26.70;57.10;;;;;;5085098;28;20538;-68
2023/06/25 06:45:53;;;;;;;6.25;5.28;;;26.80;56.90;;;;;;5098925;28;20019;-68
2023/06/25 06:48:18;;;;;;;5.97;5.38;;;27.00;56.90;;;;;;5079748;28;20017;-68
2023/06/25 06:50:44;;;;;;;6.13;4.68;;;27.10;56.60;;;;;;5080937;28;20081;-68
2023/06/25 06:53:09;;;;;;;7.25;5.85;;;27.20;56.60;;;;;;5085645;28;20031;-68
2023/06/25 06:55:35;;;;;;;8.82;5.90;;;27.30;56.20;;;;;;5104952;28;20086;-68
2023/06/25 06:58:01;;;;;;;7.63;6.43;;;27.20;56.10;;;;;;5089389;28;20028;-68
2023/06/25 07:00:26;;;;;;;8.50;5.55;;;27.10;55.90;;;;;;5081667;28;20391;-69
2023/06/25 07:02:55;;;;;;;8.23;6.65;;;27.10;56.50;;;;;;5094262;28;20035;-68
2023/06/25 07:05:22;;;;;;;7.50;6.18;;;27.20;56.20;;;;;;5089824;28;20445;-68
2023/06/25 07:07:48;;;;;;;9.52;6.32;;;27.30;56.10;;;;;;5077648;28;20117;-69
2023/06/25 07:10:13;;;;;;;8.32;6.40;;;27.20;56.20;;;;;;5087495;28;20048;-69
2023/06/25 07:12:39;;;;;;;6.22;5.40;;;27.30;56.30;;;;;;5084722;28;20016;-68
2023/06/25 07:15:05;;;;;;;6.18;5.45;;;27.50;56.40;;;;;;5101229;28;20020;-69
2023/06/25 07:17:31;;;;;;;5.70;5.15;;;27.70;56.10;;;;;;5094661;28;20012;-69
2023/06/25 07:19:56;;;;;;;6.95;6.25;;;27.80;55.80;;;;;;5092627;28;20028;-68
2023/06/25 07:22:22;;;;;;;7.50;6.13;;;28.00;55.50;;;;;;5099450;28;20016;-68
2023/06/25 07:24:47;;;;;;;6.90;5.90;;;28.00;55.50;;;;;;5086170;28;20406;-69
2023/06/25 07:27:13;;;;;;;8.00;6.47;;;28.10;55.20;;;;;;5107135;28;20031;-69
2023/06/25 07:29:39;;;;;;;6.10;5.50;;;27.90;54.90;;;;;;5084881;28;20493;-69
2023/06/25 07:32:05;;;;;;;6.75;5.85;;;28.00;55.20;;;;;;5089929;28;20437;-69
2023/06/25 07:34:30;;;;;;;6.38;5.50;;;28.10;55.30;;;;;;5089847;28;20472;-69
2023/06/25 07:36:56;;;;;;;7.05;6.20;;;28.20;55.10;;;;;;5100380;28;20020;-68
2023/06/25 07:39:28;;;;;;;8.02;7.15;;;28.20;54.90;;;;;;5073836;28;20025;-68
2023/06/25 07:41:54;;;;;;;9.55;6.50;;;28.00;54.80;;;;;;5072211;28;20391;-68
2023/06/25 07:44:20;;;;;;;8.32;6.60;;;28.00;55.00;;;;;;5085867;28;20024;-69
2023/06/25 07:46:46;;;;;;;7.07;6.22;;;28.10;55.30;;;;;;5079933;28;20025;-69
2023/06/25 07:49:11;;;;;;;7.63;6.75;;;28.10;55.10;;;;;;5083774;28;20027;-69
2023/06/25 07:51:37;;;;;;;7.18;5.93;;;28.20;55.00;;;;;;5090727;28;20024;-69
2023/06/25 07:54:03;;;;;;;6.68;5.97;;;28.30;55.00;;;;;;5074773;28;20069;-69
2023/06/25 07:56:28;;;;;;;6.00;5.40;;;28.20;55.00;;;;;;5072107;28;20487;-69
2023/06/25 07:58:54;;;;;;;6.93;6.07;;;28.30;55.00;;;;;;5079813;28;20032;-69
2023/06/25 08:01:20;;;;;;;6.30;5.57;;;28.40;54.90;;;;;;5106494;28;20534;-69
2023/06/25 08:03:46;;;;;;;6.30;5.47;;;28.60;55.00;;;;;;5085718;28;20062;-70
2023/06/25 08:06:11;;;;;;;6.85;6.13;;;28.80;54.60;;;;;;5092447;28;20036;-69
2023/06/25 08:08:37;;;;;;;6.25;5.15;;;28.90;54.10;;;;;;5076805;28;20109;-68
2023/06/25 08:11:03;;;;;;;5.30;4.70;;;28.90;54.10;;;;;;5090158;28;20052;-70
2023/06/25 08:13:28;;;;;;;6.15;4.93;;;29.10;53.90;;;;;;5095552;28;20031;-69
2023/06/25 08:15:54;;;;;;;7.93;4.97;;;29.20;53.30;;;;;;5092037;28;20043;-69
2023/06/25 08:18:20;;;;;;;5.93;5.18;;;29.30;52.80;;;;;;5090999;28;20708;-69
2023/06/25 08:20:46;;;;;;;4.80;3.97;;;29.30;52.40;;;;;;5090779;28;20027;-69
2023/06/25 08:23:12;;;;;;;5.35;4.85;;;29.40;52.00;;;;;;5072616;28;20093;-69
2023/06/25 08:25:38;;;;;;;4.78;4.07;;;29.60;51.90;;;;;;5073491;28;20032;-69
2023/06/25 08:28:03;;;;;;;4.45;3.72;;;29.80;51.70;;;;;;5092183;28;20594;-67
2023/06/25 08:30:29;;;;;;;5.05;4.00;;;29.90;50.80;;;;;;5090657;28;20061;-68
2023/06/25 08:32:55;;;;;;;5.60;3.95;;;30.00;50.70;;;;;;5092235;28;20023;-68
2023/06/25 08:35:20;;;;;;;4.47;3.10;;;30.00;49.90;;;;;;5105904;28;20020;-68
2023/06/25 08:37:46;;;;;;;3.95;3.33;;;30.10;49.90;;;;;;5091382;28;20394;-69
2023/06/25 08:40:12;;;;;;;4.35;3.72;;;30.30;49.60;;;;;;5079422;28;20103;-68
2023/06/25 08:42:39;;;;;;;4.18;3.17;;;30.40;48.50;;;;;;5071535;28;20021;-68
2023/06/25 08:45:05;;;;;;;4.75;3.30;;;30.50;48.00;;;;;;5082176;28;20080;-68
2023/06/25 08:47:37;;;;;;;5.88;3.58;;;30.50;47.70;;;;;;5091905;28;20032;-68
2023/06/25 08:50:03;;;;;;;4.43;3.47;;;30.50;47.50;;;;;;5083937;28;20035;-68
2023/06/25 08:52:29;;;;;;;5.32;4.40;;;30.40;46.80;;;;;;5079306;28;20028;-68
2023/06/25 08:54:55;;;;;;;4.80;3.95;;;30.30;46.30;;;;;;5075079;28;20016;-68
2023/06/25 08:57:21;;;;;;;4.13;3.40;;;30.20;45.40;;;;;;5084996;28;20039;-68
2023/06/25 08:59:47;;;;;;;3.80;3.20;;;30.20;46.10;;;;;;5087091;28;20151;-68
2023/06/25 09:02:12;;;;;;;6.70;4.55;;;30.30;46.30;;;;;;5084695;28;21441;-68
2023/06/25 09:04:38;;;;;;;3.80;3.33;;;30.40;46.00;;;;;;5080310;28;20023;-68
2023/06/25 09:07:08;;;;;;;4.05;3.40;;;30.40;45.80;;;;;;5088780;28;20170;-68
2023/06/25 09:09:34;;;;;;;5.25;3.75;;;30.50;45.80;;;;;;5093171;28;20081;-68
2023/06/25 09:12:00;;;;;;;6.70;3.80;;;30.40;45.30;;;;;;5101587;28;20028;-68
2023/06/25 09:14:26;;;;;;;5.00;4.00;;;30.30;45.80;;;;;;5094419;28;20020;-68
2023/06/25 09:16:54;;;;;;;4.38;3.60;;;30.10;45.30;;;;;;5094007;28;20065;-68
2023/06/25 09:19:21;;;;;;;5.97;3.28;;;30.20;45.80;;;;;;5101482;28;20107;-68
2023/06/25 09:21:48;;;;;;;4.30;3.50;;;30.40;46.10;;;;;;5096336;28;20636;-69
2023/06/25 09:24:15;;;;;;;5.13;3.78;;;30.50;46.00;;;;;;5093626;28;20031;-69
2023/06/25 09:26:52;;;;;;;5.60;4.25;;;30.50;45.50;;;;;;5091320;28;20078;-69
2023/06/25 09:29:20;;;;;;;4.35;3.58;;;30.40;45.90;;;;;;5101114;28;20085;-69
2023/06/25 09:31:47;;;;;;;4.90;3.80;;;30.60;46.90;;;;;;5098700;28;20023;-69
2023/06/25 09:34:17;;;;;;;5.30;4.80;;;30.70;46.10;;;;;;5099864;28;20099;-68
2023/06/25 09:36:44;;;;;;;4.43;3.97;;;30.50;45.50;;;;;;5097533;28;20020;-69
2023/06/25 09:39:11;;;;;;;5.18;3.92;;;30.40;46.30;;;;;;5090756;28;20066;-68
2023/06/25 09:41:40;;;;;;;4.75;3.90;;;30.60;46.60;;;;;;5100638;28;20024;-68
2023/06/25 09:44:06;;;;;;;5.82;4.60;;;30.60;46.40;;;;;;5093603;28;20521;-68
2023/06/25 09:46:40;;;;;;;5.70;4.50;;;30.60;46.30;;;;;;5087079;28;20052;-68
2023/06/25 09:49:08;;;;;;;6.85;5.10;;;30.60;46.30;;;;;;5076714;28;20028;-67
2023/06/25 09:51:47;;;;;;;5.78;4.43;;;30.40;46.40;;;;;;5081575;28;20359;-67
2023/06/25 09:54:17;;;;;;;6.13;4.25;;;30.40;46.90;;;;;;5089427;28;20028;-66
2023/06/25 09:56:44;;;;;;;5.82;4.82;;;30.50;47.00;;;;;;5078612;28;20025;-68
2023/06/25 09:59:11;;;;;;;4.82;3.50;;;30.50;46.60;;;;;;5074269;28;20103;-67
2023/06/25 10:01:37;;;;;;;4.60;3.38;;;30.70;47.10;;;;;;5078035;28;20093;-68
2023/06/25 10:04:03;;;;;;;5.53;4.40;;;30.90;47.20;;;;;;5093534;28;20632;-70
2023/06/25 10:06:29;;;;;;;5.05;4.40;;;30.90;47.00;;;;;;5093714;28;20417;-68
2023/06/25 10:08:55;;;;;;;5.15;4.18;;;31.00;47.10;;;;;;5085744;28;20046;-68
2023/06/25 10:11:24;;;;;;;4.47;3.90;;;31.10;47.30;;;;;;5080047;28;20028;-68
2023/06/25 10:13:51;;;;;;;9.85;5.20;;;31.20;47.70;;;;;;5082971;28;20114;-68
2023/06/25 10:16:21;;;;;;;4.22;3.83;;;31.30;46.70;;;;;;5071649;28;20027;-68
2023/06/25 10:18:47;;;;;;;5.40;4.07;;;31.30;47.10;;;;;;5079754;28;20028;-68
2023/06/25 10:21:21;;;;;;;4.65;3.60;;;31.30;47.30;;;;;;5082217;28;20028;-68
2023/06/25 10:23:56;;;;;;;4.88;4.22;;;31.40;47.00;;;;;;5097547;28;20107;-68
2023/06/25 10:26:26;;;;;;;4.38;3.85;;;31.60;46.50;;;;;;5089096;28;20472;-68
2023/06/25 10:28:52;;;;;;;4.93;4.38;;;31.70;46.40;;;;;;5084799;28;20029;-68
2023/06/25 10:31:18;;;;;;;5.15;3.90;;;31.80;46.10;;;;;;5081849;28;20394;-68
2023/06/25 10:33:43;;;;;;;4.78;4.30;;;31.80;46.00;;;;;;5088442;28;20020;-67
2023/06/25 10:36:10;;;;;;;5.00;4.00;;;31.70;46.00;;;;;;5087361;28;20035;-68
2023/06/25 10:38:36;;;;;;;4.75;3.70;;;31.70;45.90;;;;;;5089726;28;20031;-67
2023/06/25 10:41:01;;;;;;;6.03;4.15;;;32.00;46.00;;;;;;5092546;28;20030;-70
2023/06/25 10:43:27;;;;;;;4.03;3.58;;;32.10;45.10;;;;;;5101643;28;20434;-68
2023/06/25 10:45:54;;;;;;;3.88;3.47;;;32.20;45.30;;;;;;5095074;28;20016;-69
2023/06/25 10:48:21;;;;;;;4.32;3.30;;;32.30;45.10;;;;;;5098166;28;20028;-69
2023/06/25 10:50:48;;;;;;;3.88;3.22;;;32.50;44.80;;;;;;5090054;28;20072;-69
2023/06/25 10:53:16;;;;;;;4.20;3.80;;;32.70;44.80;;;;;;5094292;28;20467;-66
2023/06/25 10:55:47;;;;;;;3.85;3.45;;;32.70;44.50;;;;;;5097321;28;20076;-66
2023/06/25 10:58:17;;;;;;;5.45;3.53;;;32.80;44.50;;;;;;5083082;28;20503;-66
2023/06/25 11:00:43;;;;;;;5.72;4.13;;;32.80;44.40;;;;;;5095977;28;20027;-67
2023/06/25 11:03:09;;;;;;;3.90;3.50;;;32.80;43.30;;;;;;5100378;28;20024;-67
2023/06/25 11:05:40;;;;;;;4.10;3.53;;;32.80;43.10;;;;;;5092706;28;20028;-68
2023/06/25 11:08:07;;;;;;;4.80;3.55;;;32.60;43.30;;;;;;5101959;28;20024;-66
2023/06/25 11:10:34;;;;;;;4.05;3.60;;;32.50;43.70;;;;;;5085930;28;20021;-67
2023/06/25 11:13:01;;;;;;;3.83;3.00;;;32.50;44.00;;;;;;5096657;28;20028;-66
2023/06/25 11:15:31;;;;;;;3.30;3.00;;;32.70;44.20;;;;;;5080933;28;20106;-66
2023/06/25 11:17:56;;;;;;;4.78;3.30;;;33.00;44.10;;;;;;5083849;28;20505;-67
2023/06/25 11:20:23;;;;;;;3.17;2.78;;;33.10;43.70;;;;;;5101342;28;20027;-67
2023/06/25 11:22:49;;;;;;;4.05;3.00;;;33.30;43.30;;;;;;5088555;28;20016;-67
2023/06/25 11:25:15;;;;;;;3.65;3.08;;;33.50;43.20;;;;;;5097969;28;20394;-67
2023/06/25 11:27:41;;;;;;;3.70;3.25;;;33.60;43.20;;;;;;5112055;28;20020;-67
2023/06/25 11:30:08;;;;;;;3.35;3.05;;;33.60;42.80;;;;;;5090358;28;20036;-67
2023/06/25 11:32:35;;;;;;;3.80;3.00;;;33.70;42.90;;;;;;5072194;28;20012;-67
2023/06/25 11:35:08;;;;;;;5.38;3.40;;;33.80;42.30;;;;;;5077663;28;20356;-67
2023/06/25 11:37:43;;;;;;;3.70;3.40;;;33.80;41.80;;;;;;5074413;28;20070;-67
2023/06/25 11:40:19;;;;;;;3.08;2.78;;;33.50;41.20;;;;;;5092587;28;20031;-68
2023/06/25 11:42:44;;;;;;;3.03;2.72;;;33.60;41.70;;;;;;5085076;28;20027;-68
2023/06/25 11:45:10;;;;;;;3.30;2.65;;;33.80;41.80;;;;;;5090070;28;20028;-68
2023/06/25 11:47:36;;;;;;;3.22;2.92;;;34.10;41.60;;;;;;5088570;28;20082;-68
2023/06/25 11:50:02;;;;;;;2.88;2.58;;;34.10;41.00;;;;;;5086752;28;20021;-68
2023/06/25 11:52:28;;;;;;;3.05;2.55;;;34.40;41.10;;;;;;5089608;28;20076;-68
2023/06/25 11:54:53;;;;;;;4.53;2.97;;;34.50;40.70;;;;;;5087838;28;20024;-68
2023/06/25 11:57:19;;;;;;;3.05;2.65;;;34.50;40.10;;;;;;5073272;28;20024;-68
2023/06/25 11:59:45;;;;;;;2.88;2.58;;;34.70;40.80;;;;;;5081036;28;20024;-68
2023/06/25 12:02:11;;;;;;;4.68;3.53;;;34.80;40.10;;;;;;5078011;28;20560;-67
2023/06/25 12:04:37;;;;;;;4.55;3.70;;;34.60;39.60;;;;;;5081471;28;20433;-67
2023/06/25 12:07:03;;;;;;;3.42;3.13;;;34.20;39.30;;;;;;5079385;28;20029;-67
2023/06/25 12:09:28;;;;;;;2.92;2.63;;;34.20;40.20;;;;;;5096418;28;20073;-67
2023/06/25 12:11:55;;;;;;;2.63;2.42;;;34.40;40.40;;;;;;5092347;28;20410;-67
2023/06/25 12:14:21;;;;;;;2.67;2.42;;;34.70;40.30;;;;;;5091674;28;20039;-68
2023/06/25 12:16:46;;;;;;;3.13;2.83;;;34.80;40.30;;;;;;5083930;28;20034;-68
2023/06/25 12:19:12;;;;;;;4.68;3.50;;;35.00;39.70;;;;;;5099041;28;20031;-68
2023/06/25 12:21:37;;;;;;;3.30;3.00;;;34.90;38.30;;;;;;5086697;28;20422;-68
2023/06/25 12:24:04;;;;;;;4.57;3.20;;;34.80;38.80;;;;;;5071431;28;20424;-68
2023/06/25 12:26:30;;;;;;;3.40;3.10;;;35.00;38.90;;;;;;5089230;28;20028;-67
2023/06/25 12:28:56;;;;;;;4.30;3.42;;;35.00;38.80;;;;;;5105235;28;20034;-67
2023/06/25 12:31:22;;;;;;;3.75;3.20;;;35.10;38.70;;;;;;5100403;28;20027;-68
2023/06/25 12:33:47;;;;;;;2.97;2.67;;;35.20;38.70;;;;;;5079387;28;20055;-68
2023/06/25 12:36:13;;;;;;;2.97;2.60;;;35.20;38.60;;;;;;5097878;28;20028;-67
2023/06/25 12:38:38;;;;;;;3.40;2.92;;;35.30;38.80;;;;;;5094197;28;20051;-68
2023/06/25 12:41:04;;;;;;;3.42;2.95;;;35.50;38.80;;;;;;5091244;28;20024;-68